createdAt,value
2022-07-27T00:00:15.288Z,24.57
2022-07-27T00:07:03.412Z,24.59
2022-07-27T00:09:32.157Z,24.50
2022-07-27T00:12:37.039Z,24.46
2022-07-27T00:15:24.960Z,24.46
2022-07-27T00:19:07.472Z,24.41
2022-07-27T00:25:02.335Z,24.45
2022-07-27T00:28:07.174Z,24.48
2022-07-27T00:33:23.532Z,24.47
2022-07-27T00:38:40.326Z,24.36
2022-07-27T00:41:46.790Z,24.27
2022-07-27T00:44:33.639Z,24.20
2022-07-27T00:47:20.948Z,24.09
2022-07-27T00:49:49.865Z,24.07
2022-07-27T00:52:36.796Z,24.01
2022-07-27T00:55:24.695Z,23.96
2022-07-27T00:58:29.861Z,23.95
2022-07-27T01:01:35.613Z,23.96
2022-07-27T01:04:41.808Z,23.96
2022-07-27T01:07:16.704Z,23.95
2022-07-27T01:10:05.223Z,23.93
2022-07-27T01:15:59.165Z,23.86
2022-07-27T01:18:30.418Z,23.78
2022-07-27T01:21:01.133Z,23.68
2022-07-27T01:23:48.537Z,23.66
2022-07-27T01:26:38.303Z,23.59
2022-07-27T01:32:13.499Z,23.76
2022-07-27T01:38:26.256Z,23.95
2022-07-27T01:44:24.418Z,23.87
2022-07-27T01:47:30.789Z,23.87
2022-07-27T01:50:18.290Z,23.81
2022-07-27T01:53:25.335Z,23.74
2022-07-27T01:55:54.968Z,23.67
2022-07-27T01:58:42.261Z,23.65
2022-07-27T02:01:29.549Z,23.56
2022-07-27T02:04:34.833Z,23.48
2022-07-27T02:07:21.726Z,23.38
2022-07-27T02:10:46.002Z,23.30
2022-07-27T02:13:22.933Z,23.30
2022-07-27T02:15:54.667Z,23.30
2022-07-27T02:22:07.406Z,23.26
2022-07-27T02:25:14.253Z,23.25
2022-07-27T02:31:44.642Z,23.20
2022-07-27T02:34:51.278Z,23.13
2022-07-27T02:37:56.682Z,23.05
2022-07-27T02:40:45.230Z,22.97
2022-07-27T02:43:17.366Z,22.86
2022-07-27T02:46:23.709Z,22.71
2022-07-27T02:49:29.132Z,22.55
2022-07-27T02:55:36.738Z,22.35
2022-07-27T03:01:49.160Z,22.23
2022-07-27T03:05:15.856Z,22.21
2022-07-27T03:11:10.036Z,22.08
2022-07-27T03:14:15.822Z,22.12
2022-07-27T03:17:02.573Z,22.25
2022-07-27T03:20:08.825Z,22.38
2022-07-27T03:22:58.262Z,22.51
2022-07-27T03:25:45.585Z,22.61
2022-07-27T03:28:34.105Z,22.74
2022-07-27T03:31:22.521Z,22.86
2022-07-27T03:34:10.511Z,22.91
2022-07-27T03:37:01.721Z,22.87
2022-07-27T03:39:49.236Z,22.71
2022-07-27T03:45:26.040Z,22.42
2022-07-27T03:47:55.110Z,22.36
2022-07-27T03:51:04.028Z,22.22
2022-07-27T03:53:51.125Z,22.10
2022-07-27T03:56:19.917Z,22.01
2022-07-27T04:02:13.127Z,21.86
2022-07-27T04:05:02.297Z,21.75
2022-07-27T04:10:55.015Z,21.64
2022-07-27T04:13:45.538Z,21.74
2022-07-27T04:16:16.719Z,21.88
2022-07-27T04:19:24.433Z,22.03
2022-07-27T04:22:12.276Z,22.13
2022-07-27T04:25:17.430Z,22.21
2022-07-27T04:28:05.150Z,22.37
2022-07-27T04:36:26.531Z,23.21
2022-07-27T04:39:32.049Z,23.51
2022-07-27T04:49:29.165Z,25.09
2022-07-27T05:05:02.326Z,27.12
2022-07-27T05:07:30.972Z,27.47
2022-07-27T05:10:36.532Z,27.86
2022-07-27T05:13:41.536Z,28.28
2022-07-27T05:16:30.510Z,28.81
2022-07-27T05:19:18.288Z,29.19
2022-07-27T05:22:24.292Z,29.54
2022-07-27T05:28:18.830Z,29.79
2022-07-27T05:34:30.818Z,29.86
2022-07-27T05:37:54.927Z,30.17
2022-07-27T05:41:00.367Z,30.43
2022-07-27T05:47:12.707Z,30.82
2022-07-27T05:49:41.540Z,30.79
2022-07-27T05:52:28.182Z,30.80
2022-07-27T05:55:15.598Z,30.95
2022-07-27T05:58:02.668Z,30.98
2022-07-27T06:01:09.330Z,31.38
2022-07-27T06:04:15.955Z,31.58
2022-07-27T06:07:21.469Z,31.79
2022-07-27T06:13:14.786Z,32.35
2022-07-27T06:16:20.229Z,32.26
2022-07-27T06:18:48.972Z,32.44
2022-07-27T06:21:36.075Z,32.70
2022-07-27T06:24:42.026Z,32.79
2022-07-27T06:27:10.714Z,32.89
2022-07-27T06:30:16.334Z,33.16
2022-07-27T06:33:04.851Z,33.40
2022-07-27T06:39:00.328Z,33.84
2022-07-27T06:44:56.026Z,34.16
2022-07-27T06:48:01.431Z,34.84
2022-07-27T06:51:08.021Z,35.31
2022-07-27T06:53:55.705Z,35.40
2022-07-27T06:56:42.349Z,35.45
2022-07-27T07:00:09.082Z,35.23
2022-07-27T07:03:15.426Z,35.26
2022-07-27T07:06:21.216Z,35.09
2022-07-27T07:08:50.194Z,35.15
2022-07-27T07:15:00.493Z,33.87
2022-07-27T07:17:29.475Z,34.19
2022-07-27T07:20:16.404Z,34.35
2022-07-27T07:22:45.410Z,34.24
2022-07-27T07:25:50.307Z,33.29
2022-07-27T07:28:21.528Z,33.04
2022-07-27T07:31:26.748Z,32.77
2022-07-27T07:34:15.355Z,33.84
2022-07-27T07:37:57.254Z,33.83
2022-07-27T07:40:45.084Z,33.84
2022-07-27T07:43:33.106Z,33.40
2022-07-27T07:56:33.875Z,32.09
2022-07-27T08:03:04.173Z,31.16
2022-07-27T08:05:51.670Z,31.32
2022-07-27T08:15:10.186Z,31.22
2022-07-27T08:18:16.678Z,31.23
2022-07-27T08:21:04.598Z,31.54
2022-07-27T08:23:52.509Z,31.82
2022-07-27T08:26:39.611Z,31.80
2022-07-27T08:29:44.935Z,32.21
2022-07-27T08:35:39.130Z,32.48
2022-07-27T08:38:28.829Z,32.79
2022-07-27T08:41:17.967Z,33.38
2022-07-27T08:47:52.067Z,33.63
2022-07-27T08:50:38.955Z,33.24
2022-07-27T08:53:53.596Z,32.95
2022-07-27T08:56:23.612Z,32.62
2022-07-27T09:01:59.245Z,31.98
2022-07-27T09:04:47.258Z,32.31
2022-07-27T09:13:46.606Z,31.84
2022-07-27T09:18:12.190Z,30.91
2022-07-27T09:23:28.177Z,30.68
2022-07-27T09:29:19.492Z,31.82
2022-07-27T09:32:26.320Z,32.00
2022-07-27T09:34:55.672Z,32.41
2022-07-27T09:37:43.781Z,32.50
2022-07-27T09:46:39.348Z,33.75
2022-07-27T09:49:28.290Z,34.11
2022-07-27T09:54:46.965Z,34.22
2022-07-27T10:00:55.273Z,34.43
2022-07-27T10:03:42.493Z,34.21
2022-07-27T10:07:12.463Z,34.65
2022-07-27T10:13:27.396Z,35.03
2022-07-27T10:15:57.437Z,34.34
2022-07-27T10:19:26.410Z,35.05
2022-07-27T10:21:55.644Z,36.05
2022-07-27T10:27:27.908Z,36.45
2022-07-27T10:30:17.164Z,36.68
2022-07-27T10:40:57.029Z,36.45
2022-07-27T10:47:07.759Z,36.12
2022-07-27T10:49:40.346Z,36.19
2022-07-27T10:55:53.519Z,36.58
2022-07-27T11:02:38.800Z,35.70
2022-07-27T11:05:59.090Z,36.36
2022-07-27T11:12:36.026Z,35.84
2022-07-27T11:15:06.464Z,35.57
2022-07-27T11:18:15.199Z,35.92
2022-07-27T11:21:42.113Z,35.98
2022-07-27T11:24:47.928Z,35.42
2022-07-27T11:27:19.958Z,35.55
2022-07-27T11:30:27.580Z,35.84
2022-07-27T11:36:38.749Z,36.73
2022-07-27T11:39:59.660Z,36.79
2022-07-27T11:46:15.400Z,36.47
2022-07-27T11:49:28.048Z,36.36
2022-07-27T11:52:17.087Z,36.08
2022-07-27T11:55:04.331Z,36.22
2022-07-27T11:58:10.349Z,35.41
2022-07-27T12:00:57.645Z,35.07
2022-07-27T12:07:15.507Z,35.19
2022-07-27T12:10:21.352Z,34.71
2022-07-27T12:12:50.481Z,34.61
2022-07-27T12:18:52.733Z,33.82
2022-07-27T12:21:39.572Z,33.98
2022-07-27T12:24:44.943Z,34.27
2022-07-27T12:33:38.279Z,35.36
2022-07-27T12:36:27.791Z,35.53
2022-07-27T12:39:15.674Z,35.31
2022-07-27T12:42:02.965Z,34.91
2022-07-27T12:44:34.370Z,34.86
2022-07-27T12:47:23.920Z,34.89
2022-07-27T12:50:50.342Z,35.03
2022-07-27T12:53:55.896Z,35.76
2022-07-27T12:56:27.035Z,36.26
2022-07-27T13:06:22.199Z,35.16
2022-07-27T13:09:09.878Z,35.26
2022-07-27T13:12:18.403Z,35.45
2022-07-27T13:15:08.302Z,35.24
2022-07-27T13:18:19.883Z,35.28
2022-07-27T13:21:09.849Z,35.10
2022-07-27T13:24:13.959Z,34.79
2022-07-27T13:27:39.072Z,34.32
2022-07-27T13:30:44.533Z,34.35
2022-07-27T13:33:50.580Z,34.87
2022-07-27T13:36:40.028Z,35.49
2022-07-27T13:39:44.757Z,35.89
2022-07-27T13:42:50.466Z,36.33
2022-07-27T13:48:24.718Z,36.08
2022-07-27T13:51:12.184Z,36.15
2022-07-27T13:53:40.997Z,36.19
2022-07-27T14:05:27.662Z,35.64
2022-07-27T14:08:16.143Z,35.56
2022-07-27T14:10:45.743Z,35.35
2022-07-27T14:13:33.911Z,35.08
2022-07-27T14:16:21.734Z,34.77
2022-07-27T14:19:12.643Z,34.33
2022-07-27T14:22:37.115Z,34.01
2022-07-27T14:25:08.225Z,33.54
2022-07-27T14:27:57.694Z,32.57
2022-07-27T14:31:06.670Z,31.07
2022-07-27T14:33:56.047Z,30.73
2022-07-27T14:36:44.073Z,30.51
2022-07-27T14:45:46.346Z,29.99
2022-07-27T14:52:01.054Z,29.79
2022-07-27T14:54:33.612Z,29.22
2022-07-27T14:57:25.089Z,29.01
2022-07-27T15:00:15.939Z,28.20
2022-07-27T15:03:21.490Z,27.71
2022-07-27T15:11:44.575Z,27.41
2022-07-27T15:14:32.173Z,26.85
2022-07-27T15:17:03.366Z,26.63
2022-07-27T15:19:51.112Z,26.49
2022-07-27T15:23:51.760Z,26.48
2022-07-27T15:26:39.244Z,26.35
2022-07-27T15:29:27.543Z,26.46
2022-07-27T15:32:14.781Z,26.80
2022-07-27T15:35:04.725Z,26.95
2022-07-27T15:37:33.561Z,27.00
2022-07-27T15:40:41.461Z,27.04
2022-07-27T15:43:48.574Z,27.02
2022-07-27T15:46:35.851Z,26.88
2022-07-27T15:49:05.084Z,26.84
2022-07-27T15:51:33.944Z,26.85
2022-07-27T15:54:22.256Z,26.79
2022-07-27T15:57:28.906Z,27.15
2022-07-27T16:03:05.103Z,27.92
2022-07-27T16:06:10.606Z,28.25
2022-07-27T16:08:57.281Z,28.57
2022-07-27T16:11:44.516Z,28.75
2022-07-27T16:14:32.431Z,28.78
2022-07-27T16:17:57.544Z,28.76
2022-07-27T16:20:44.592Z,28.95
2022-07-27T16:23:31.942Z,29.28
2022-07-27T16:26:56.247Z,29.58
2022-07-27T16:29:26.692Z,29.71
2022-07-27T16:35:10.569Z,30.13
2022-07-27T16:38:16.078Z,30.23
2022-07-27T16:41:05.700Z,30.38
2022-07-27T16:43:38.738Z,30.34
2022-07-27T16:49:15.793Z,30.47
2022-07-27T16:51:45.560Z,30.49
2022-07-27T16:54:50.655Z,30.56
2022-07-27T17:00:43.860Z,30.28
2022-07-27T17:03:12.811Z,30.21
2022-07-27T17:05:41.570Z,30.23
2022-07-27T17:08:48.059Z,30.27
2022-07-27T17:11:37.313Z,30.34
2022-07-27T17:14:42.831Z,30.36
2022-07-27T17:17:30.665Z,30.22
2022-07-27T17:20:35.880Z,30.10
2022-07-27T17:23:41.815Z,29.83
2022-07-27T17:26:12.077Z,29.53
2022-07-27T17:28:59.771Z,29.37
2022-07-27T17:34:53.176Z,29.14
2022-07-27T17:38:17.962Z,29.16
2022-07-27T17:50:58.562Z,28.80
2022-07-27T17:56:52.590Z,28.75
2022-07-27T17:59:40.529Z,28.62
2022-07-27T18:05:52.119Z,28.13
2022-07-27T18:08:21.518Z,27.87
2022-07-27T18:11:44.790Z,27.37
2022-07-27T18:14:32.062Z,26.74
2022-07-27T18:17:38.914Z,26.41
2022-07-27T18:20:44.608Z,26.01
2022-07-27T18:23:33.287Z,25.73
2022-07-27T18:26:21.273Z,25.55
2022-07-27T18:29:27.719Z,25.25
2022-07-27T18:32:15.746Z,25.08
2022-07-27T18:37:52.322Z,24.84
2022-07-27T18:44:41.780Z,24.63
2022-07-27T18:47:49.363Z,24.43
2022-07-27T18:50:39.544Z,24.28
2022-07-27T18:53:27.571Z,24.19
2022-07-27T18:56:15.607Z,24.08
2022-07-27T18:58:44.472Z,24.07
2022-07-27T19:01:31.748Z,23.99
2022-07-27T19:04:37.897Z,23.87
2022-07-27T19:07:30.242Z,23.76
2022-07-27T19:10:19.529Z,23.71
2022-07-27T19:13:24.984Z,23.63
2022-07-27T19:16:11.754Z,23.54
2022-07-27T19:18:59.040Z,23.50
2022-07-27T19:21:28.864Z,23.48
2022-07-27T19:24:16.148Z,23.52
2022-07-27T19:27:21.645Z,23.62
2022-07-27T19:30:12.079Z,23.70
2022-07-27T19:32:41.278Z,23.77
2022-07-27T19:36:05.376Z,23.84
2022-07-27T19:38:34.663Z,23.89
2022-07-27T19:41:26.454Z,23.96
2022-07-27T19:43:56.325Z,24.11
2022-07-27T19:47:01.784Z,24.19
2022-07-27T19:49:31.742Z,24.25
2022-07-27T19:52:02.449Z,24.25
2022-07-27T19:55:09.363Z,24.26
2022-07-27T19:57:38.374Z,24.29
2022-07-27T20:00:10.587Z,24.32
2022-07-27T20:03:01.009Z,24.38
2022-07-27T20:06:08.792Z,24.48
2022-07-27T20:08:38.295Z,24.42
2022-07-27T20:11:44.703Z,24.22
2022-07-27T20:14:50.025Z,24.05
2022-07-27T20:17:55.987Z,23.94
2022-07-27T20:20:43.240Z,23.76
2022-07-27T20:23:30.937Z,23.61
2022-07-27T20:26:37.312Z,23.55
2022-07-27T20:29:29.086Z,23.50
2022-07-27T20:32:56.307Z,23.46
2022-07-27T20:35:37.530Z,23.32
2022-07-27T20:41:52.688Z,23.12
2022-07-27T20:47:49.097Z,23.01
2022-07-27T20:50:53.915Z,22.98
2022-07-27T20:53:58.904Z,22.92
2022-07-27T20:59:53.289Z,22.77
2022-07-27T21:02:22.291Z,22.78
2022-07-27T21:08:52.420Z,22.58
2022-07-27T21:11:21.244Z,22.54
2022-07-27T21:15:03.201Z,22.53
2022-07-27T21:17:51.077Z,22.48
2022-07-27T21:24:03.815Z,22.34
2022-07-27T21:27:09.762Z,22.36
2022-07-27T21:36:44.614Z,22.23
2022-07-27T21:39:49.822Z,22.27
2022-07-27T21:42:37.375Z,22.24
2022-07-27T21:45:26.469Z,22.17
2022-07-27T21:47:55.983Z,22.13
2022-07-27T21:54:25.713Z,22.13
2022-07-27T21:56:54.673Z,22.03
2022-07-27T21:59:23.682Z,22.04
2022-07-27T22:05:16.735Z,22.25
2022-07-27T22:11:46.209Z,22.47
2022-07-27T22:14:33.781Z,22.57
2022-07-27T22:17:20.550Z,22.63
2022-07-27T22:19:49.457Z,22.66
2022-07-27T22:22:36.456Z,22.62
2022-07-27T22:25:41.833Z,22.57
2022-07-27T22:28:32.087Z,22.34
2022-07-27T22:34:09.735Z,21.80
2022-07-27T22:36:38.764Z,21.56
2022-07-27T22:39:27.026Z,21.33
2022-07-27T22:41:56.578Z,21.09
2022-07-27T22:47:31.579Z,20.85
2022-07-27T22:53:05.755Z,20.62
2022-07-27T22:59:02.007Z,20.73
2022-07-27T23:05:15.719Z,21.04
2022-07-27T23:11:09.288Z,21.30
2022-07-27T23:17:02.183Z,21.61
2022-07-27T23:20:07.213Z,21.70
2022-07-27T23:23:53.619Z,21.70
2022-07-27T23:30:07.199Z,21.65
2022-07-27T23:32:36.408Z,21.62
2022-07-27T23:35:25.270Z,21.42
2022-07-27T23:45:57.490Z,20.85
2022-07-27T23:51:49.687Z,20.99
2022-07-27T23:55:13.340Z,21.02
2022-07-27T23:58:38.583Z,21.15
